Česky Dansk Deutsch English Español Suomi Français Magyar Italiano Nederlands norsk Polski Português svenska Türkçe

 

Het Weer

Lusaka Internationalairport (Zambia)

07:00, 13 januari 2014 (GMT)

NWNNE
WE
SWSSE
Home            
Lusaka Internationalairport Kabwe Lusaka City Airport Kariba Karoi Choma Ndola Binga Serenje Gokwe Petauke Kasempa Livingstone Kaoma Hwange National Park Harare Kutsaga Solwezi Victoria Falls Lubumbashi-Luano Mfuwe Kasane Mutoko Mansa

Om een weerknop op uw website of weblog te plaatsen, copieer onderstaande code en plak die in uw pagina. In het eerste vakje staat HTML-code, in het tweede vakje UBB-code.


Add to Google

Details

Wind speed:3 bf, 9 kn, 4.6 m/s, 10.4 miles/h, 16.7 km/h
Wind direction:N, 360°
Visibility:Greater than 10000 m, 10 km, 32800 ft, 6.2 miles
Clouds:CAVOC
Temperature:25°C, 77°F
Gefühlte Temperatur:26°C, 79°F
Dew-point:20°C, 68°F
Atmospheric pressure:1019 hPa, 764.3 mmHg, 30.09 inHg, 1.006 atm
Relative humidity:73.8 %
METAR:FLLS 130700Z 36009KT CAVOK 25/20 Q1019

Snelkoppelingen

Actuele weersinformatie van de hele wereld. Voeg locaties toe met het plus (+) symbool. Deze snelkoppelingen kunnen worden toegevoegd aan Google.

Lid van de Technetium groep

website free tracking
StatCounter NetStat W3C Validator

21-10-2020 11:54:42
astro.technetium.be money.technetium.be phote.technetium.be tafeltennistafel.technetium.be www.ligfiets.net